Weather observations for the past three days for
Riverton Regional Airport
Imperial (Metric)
Date Time (mdt) Wind (mph) Vis. (mi.) Weather Sky Cond. Temperature (ºF) Relative Humidity Wind Chill (°F) Heat Index (°F) Pressure Precipitation (in)
Air Dwpt 6 hour altimeter (in) sea level (mb) 1 hr 3 hr 6 hr
Max. Min.
06 13:53 S 13 G 28 10.00 Fair CLR 87.1 28.9 12% 83 30 1008.1
06 12:53 SE 9 10.00 Fair CLR 84 36 18% 81 30.03 1009.5
06 11:53 Vrbl 5 10.00 Fair CLR 77 36 77 52 23% 77 30.07 1011.4
06 10:53 Calm 10.00 Fair CLR 72 36 27% 30.1 1012.3
06 09:53 SW 6 10.00 Fair CLR 68 41 38% 30.11 1012.8
06 08:53 NW 6 10.00 Fair CLR 64.9 42.1 43% 30.11 1013.2
06 07:53 NW 7 10.00 Fair CLR 61 39.9 46% 30.1 1012.7
06 06:53 W 8 10.00 Fair CLR 54 36 51% 30.1 1012.5
06 05:53 W 5 10.00 Fair CLR 53.1 37 66.9 52 55% 30.09 1012.1
06 04:53 NW 9 10.00 Fair CLR 54 35.1 49% 30.08 1011.9
06 03:53 N 5 10.00 Fair CLR 61 33.1 35% 30.07 1010.9
06 02:53 Vrbl 3 10.00 Fair CLR 64.9 32 29% 30.06 1010.1
06 01:53 E 3 10.00 Fair CLR 66.9 32 27% 30.06 1010.4
06 00:53 N 5 10.00 Fair CLR 66 30 26% 30.06 1010.6
05 23:53 NW 9 10.00 Fair CLR 66 30 88 66 26% 30.06 1010.7
05 22:53 SW 6 10.00 Fair CLR 71.1 30 22% 30.07 1010.9
05 21:53 S 6 10.00 Fair CLR 73.9 30 20% 30.07 1010.9
05 20:53 W 7 10.00 Fair CLR 73 28.9 19% 30.05 1010.9
05 19:53 W 9 10.00 Fair CLR 79 30 17% 78 30.04 1010.2
05 18:53 SW 12 10.00 Fair CLR 84.9 28.9 13% 82 30.03 1010.5
05 17:53 SW 14 10.00 Fair CLR 88 28.9 89.1 81 12% 84 30.03 1009.4
05 16:53 S 13 G 24 10.00 Fair CLR 87.1 28.9 12% 83 30.03 1009.3
05 15:53 SW 18 G 26 10.00 Fair CLR 89.1 30.9 12% 85 30.04 1009.7
05 14:53 S 12 G 29 10.00 Fair CLR 88 34 15% 84 30.05 1009.6
05 11:53 S 5 10.00 Fair CLR 81 41 81 53.1 24% 79 30.1 1011.8
05 10:53 Calm 10.00 Fair CLR 77 42.1 29% 78 30.11 1012.1
05 09:53 Calm 10.00 Fair CLR 72 39 30% 30.1 1012.1
05 08:53 Calm 10.00 Fair CLR 66.9 37 33% 30.1 1012.4
05 07:53 NW 7 10.00 Fair CLR 62.1 39 43% 30.09 1012.3
05 06:53 Calm 10.00 Fair CLR 53.1 35.1 51% 30.07 1011.9
05 05:53 S 6 10.00 Fair CLR 62.1 36 70 57 38% 30.05 1010.3
05 04:53 S 10 10.00 Fair CLR 62.1 36 38% 30.05 1010.2
05 03:53 S 6 10.00 Fair CLR 60.1 35.1 39% 30.05 1010.1
05 02:53 S 3 10.00 Fair CLR 68 37 32% 30.03 1009.0
05 01:53 S 6 10.00 Fair CLR 66 35.1 32% 30.03 1009.2
05 00:53 S 7 10.00 Fair CLR 66.9 33.1 29% 30.02 1008.9
04 23:53 SW 9 10.00 Fair CLR 69.1 33.1 87.1 69.1 26% 30.01 1008.7
04 22:53 SW 8 10.00 Fair CLR 72 32 23% 30 1008.5
04 21:53 S 9 10.00 Fair CLR 73.9 28.9 19% 30 1008.6
04 20:53 SW 6 10.00 Fair CLR 77 26.1 15% 76 29.98 1008.2
04 19:53 SW 8 10.00 Fair CLR 79 26.1 14% 78 29.97 1008.2
04 18:53 SW 15 10.00 Fair CLR 84 26.1 12% 81 29.96 1007.5
04 17:53 SW 20 G 26 10.00 Fair CLR 87.1 24.1 88 80.1 10% 84 29.95 1006.9
04 16:53 SW 20 G 29 10.00 Fair CLR 87.1 24.1 10% 84 29.95 1006.6
04 15:53 SW 20 G 28 10.00 Fair CLR 87.1 23 9% 84 29.95 1006.7
04 14:53 SW 18 G 35 10.00 Fair CLR 86 21.9 9% 83 29.95 1006.8
04 13:53 S 18 G 31 10.00 Fair CLR 84.9 23 10% 82 29.96 1006.8
04 12:53 S 20 G 30 10.00 Fair CLR 84 21.9 10% 81 29.96 1007.1
04 11:53 Calm 10.00 Fair CLR 80.1 24.1 81 52 13% 78 29.99 1008.2
04 09:53 S 7 10.00 Fair CLR 71.1 30 22% 29.99 1008.7
04 08:53 W 6 10.00 Fair CLR 66 28 24% 29.98 1008.6
04 07:53 NW 10 10.00 Fair CLR 59 28 31% 29.97 1008.6
04 06:53 W 10 10.00 Fair CLR 57.9 27 31% 29.95 1007.5
04 05:53 S 14 10.00 Fair CLR 59 25 66.9 59 27% 29.93 1006.6
04 04:53 S 12 10.00 Fair CLR 60.1 25 26% 29.93 1006.4
04 03:53 S 10 10.00 Fair CLR 62.1 24.1 23% 29.92 1006.0
04 02:53 S 7 10.00 Fair CLR 62.1 24.1 23% 29.93 1006.2
04 01:53 S 10 10.00 Fair CLR 64 24.1 22% 29.94 1006.6
04 00:53 S 10 10.00 Fair CLR 66 23 19% 29.94 1006.6
03 23:53 S 10 10.00 Fair CLR 64.9 24.1 82 64.9 21% 29.94 1006.9
03 22:53 S 10 10.00 Fair CLR 70 23 17% 29.93 1006.3
03 21:53 S 10 10.00 Fair CLR 69.1 19.9 15% 29.94 1007.2
03 20:53 SW 10 10.00 Fair CLR 73 19.9 13% 29.93 1006.9
03 19:53 SW 10 10.00 Fair CLR 75 19.9 12% 75 29.92 1006.6
03 18:53 S 14 10.00 Fair CLR 79 21 11% 77 29.92 1006.7
03 17:53 S 17 G 24 10.00 Fair CLR 82 19.9 84 73.9 10% 80 29.91 1006.2
03 16:53 SW 17 G 28 10.00 Fair CLR 82.9 21.9 10% 80 29.92 1006.0
03 15:53 S 18 G 28 10.00 Fair CLR 82.9 24.1 11% 80 29.92 1005.8
03 14:53 S 8 10.00 Fair CLR 81 24.1 12% 79 29.93 1006.4
Date Time (mdt) Wind (mph) Vis. (mi.) Weather Sky Cond. Air Dwpt Max. Min. Relative Humidity Wind Chill (°F) Heat Index (°F) altimeter (in) sea level (mb) 1 hr 3 hr 6 hr
6 hour
Temperature (ºF) Pressure Precipitation (in)